Time;durP1;ratioP1;P1;durP2;ratioP2;P2;SDS_P1;SDS_P2;PMS_P1;PMS_P2;Temp;Humidity;BMP_temperature;BMP_pressure;BME280_temperature;BME280_humidity;BME280_pressure;Samples;Min_cycle;Max_cycle;Signal;HPM_P1;HPM_P2
2021/12/17 00:00:17;;;;;;;8.87;2.97;;;23.10;99.90;;;;;;4994887;28;20639;-71
2021/12/17 00:05:18;;;;;;;14.90;2.90;;;23.30;99.90;;;;;;4994903;28;20188;-72
2021/12/17 00:07:46;;;;;;;9.93;2.57;;;23.70;99.90;;;;;;4994873;28;20182;-72
2021/12/17 00:10:18;;;;;;;16.47;2.80;;;23.90;99.90;;;;;;4994814;28;20179;-72
2021/12/17 00:12:46;;;;;;;13.50;3.00;;;23.90;99.90;;;;;;4978441;28;20233;-71
2021/12/17 00:15:14;;;;;;;11.97;3.10;;;24.00;99.90;;;;;;4995293;28;20182;-72
2021/12/17 00:17:52;;;;;;;17.70;3.30;;;24.30;99.90;;;;;;4995982;28;20745;-71
2021/12/17 00:48:25;;;;;;;12.97;3.13;;;23.90;99.90;;;;;;4995697;28;20182;-70
2021/12/17 00:53:39;;;;;;;11.53;3.20;;;24.30;99.90;;;;;;4995701;28;20197;-70
2021/12/17 00:56:06;;;;;;;14.33;3.10;;;24.70;99.90;;;;;;4977395;28;20654;-70
2021/12/17 00:58:34;;;;;;;13.73;2.70;;;24.80;99.90;;;;;;4995058;28;20221;-70
2021/12/17 01:01:02;;;;;;;14.60;3.00;;;24.80;99.90;;;;;;4994974;28;20183;-71
2021/12/17 01:03:30;;;;;;;12.30;3.27;;;24.60;99.90;;;;;;4995154;28;20179;-71
2021/12/17 01:05:57;;;;;;;9.27;2.53;;;24.60;99.90;;;;;;4994724;28;20597;-69
2021/12/17 01:08:25;;;;;;;13.07;2.90;;;25.00;99.90;;;;;;4994807;28;20188;-70
2021/12/17 01:10:56;;;;;;;14.13;2.60;;;24.80;99.90;;;;;;4994790;28;20269;-70
2021/12/17 01:13:26;;;;;;;11.00;2.97;;;24.70;99.90;;;;;;4995086;28;20178;-70
2021/12/17 01:15:54;;;;;;;10.30;2.70;;;24.90;99.90;;;;;;4994513;28;20181;-71
2021/12/17 01:18:35;;;;;;;16.53;2.90;;;25.00;99.90;;;;;;4994593;28;20206;-70
2021/12/17 01:24:06;;;;;;;8.90;3.00;;;25.00;99.90;;;;;;4995135;28;20280;-72
2021/12/17 01:42:52;;;;;;;12.63;3.07;;;25.50;99.90;;;;;;4994518;28;20259;-72
2021/12/17 01:45:25;;;;;;;9.30;3.03;;;25.30;99.90;;;;;;4994319;28;20237;-71
2021/12/17 01:47:53;;;;;;;9.20;3.10;;;25.30;99.90;;;;;;4994206;28;20192;-72
2021/12/17 01:56:16;;;;;;;8.80;3.20;;;25.50;99.90;;;;;;4993243;28;20212;-71
2021/12/17 02:01:34;;;;;;;9.37;2.67;;;25.10;99.90;;;;;;4994486;28;20328;-70
2021/12/17 02:04:04;;;;;;;9.50;3.63;;;25.40;99.90;;;;;;4994118;28;20179;-72
2021/12/17 02:06:37;;;;;;;16.03;3.63;;;25.40;99.90;;;;;;4993933;28;20187;-70
2021/12/17 02:10:08;;;;;;;9.27;3.10;;;25.60;99.90;;;;;;4993924;28;20173;-70
2021/12/17 02:21:08;;;;;;;7.93;2.87;;;26.60;99.90;;;;;;4993871;28;20241;-71
2021/12/17 02:31:46;;;;;;;9.90;2.97;;;26.50;99.90;;;;;;4993718;28;20645;-71
2021/12/17 02:34:34;;;;;;;17.27;3.37;;;26.80;99.90;;;;;;4993661;28;20183;-71
2021/12/17 02:37:06;;;;;;;8.33;3.37;;;27.20;99.90;;;;;;4993566;28;20540;-72
2021/12/17 02:39:59;;;;;;;10.50;3.67;;;27.10;99.90;;;;;;4997339;28;20194;-70
2021/12/17 02:45:31;;;;;;;7.93;3.10;;;27.60;99.90;;;;;;5002393;28;20182;-69
2021/12/17 02:45:32;;;;;;;9.10;3.80;;;27.80;99.90;;;;;;5002458;28;20194;-71
2021/12/17 02:48:06;;;;;;;13.63;3.07;;;27.70;99.90;;;;;;4999904;28;20189;-70
2021/12/17 02:50:40;;;;;;;11.37;3.43;;;27.30;99.90;;;;;;4981863;28;20182;-70
2021/12/17 02:53:09;;;;;;;13.90;3.80;;;27.10;99.90;;;;;;4996238;28;20273;-71
2021/12/17 02:55:48;;;;;;;10.83;3.00;;;26.50;99.90;;;;;;5007891;28;20194;-69
2021/12/17 02:58:16;;;;;;;6.70;3.13;;;26.90;99.90;;;;;;5014988;28;20220;-70
2021/12/17 03:00:45;;;;;;;10.40;3.83;;;27.60;99.90;;;;;;5011678;28;20209;-70
2021/12/17 03:03:15;;;;;;;6.43;2.53;;;27.60;99.90;;;;;;4997039;28;20233;-70
2021/12/17 03:05:43;;;;;;;11.97;2.57;;;27.60;99.90;;;;;;4996638;28;20269;-70
2021/12/17 03:08:14;;;;;;;8.57;2.90;;;27.70;99.90;;;;;;4996640;28;20205;-70
2021/12/17 03:10:48;;;;;;;10.10;3.40;;;27.50;99.90;;;;;;4979358;28;20179;-69
2021/12/17 03:13:22;;;;;;;11.93;3.27;;;26.90;99.90;;;;;;4996958;28;20172;-69
2021/12/17 03:16:11;;;;;;;13.90;3.00;;;26.80;99.90;;;;;;4996641;28;20221;-69
2021/12/17 03:23:53;;;;;;;18.27;3.30;;;27.40;99.90;;;;;;5016086;28;20189;-71
2021/12/17 03:26:24;;;;;;;11.30;3.10;;;26.80;99.90;;;;;;5015863;28;20571;-69
2021/12/17 03:29:03;;;;;;;11.17;3.50;;;26.30;99.90;;;;;;4996421;28;20636;-71
2021/12/17 03:31:32;;;;;;;11.23;3.43;;;26.40;99.90;;;;;;5001845;28;20190;-70
2021/12/17 03:34:13;;;;;;;11.90;3.10;;;27.30;99.90;;;;;;5008741;28;20193;-71
2021/12/17 03:36:41;;;;;;;8.87;2.73;;;28.30;99.90;;;;;;4996585;28;20633;-70
2021/12/17 03:39:09;;;;;;;7.43;2.63;;;29.50;99.90;;;;;;4996357;28;20297;-72
2021/12/17 03:41:39;;;;;;;10.50;2.77;;;30.00;99.90;;;;;;4996400;28;20182;-70
2021/12/17 03:44:09;;;;;;;10.33;2.80;;;28.80;99.90;;;;;;4996250;28;20187;-70
2021/12/17 03:46:36;;;;;;;10.47;3.67;;;27.90;99.90;;;;;;4996217;28;20187;-70
2021/12/17 03:49:04;;;;;;;11.10;3.60;;;27.70;99.90;;;;;;4995415;28;20671;-70
2021/12/17 03:51:36;;;;;;;8.60;3.03;;;27.90;99.90;;;;;;4994595;28;20186;-69
2021/12/17 03:54:04;;;;;;;14.03;3.43;;;28.60;99.90;;;;;;4996182;28;20241;-68
2021/12/17 03:56:31;;;;;;;11.47;3.13;;;28.00;99.90;;;;;;4996284;28;20175;-70
2021/12/17 03:58:59;;;;;;;11.27;3.00;;;28.40;99.90;;;;;;4995981;28;20627;-69
2021/12/17 04:01:27;;;;;;;6.87;2.50;;;28.80;99.90;;;;;;4995986;28;20249;-72
2021/12/17 04:03:55;;;;;;;11.40;2.93;;;29.20;99.90;;;;;;4978452;28;20270;-72
2021/12/17 04:06:23;;;;;;;7.80;2.80;;;29.60;99.90;;;;;;4995956;28;20263;-70
2021/12/17 04:08:50;;;;;;;11.07;3.23;;;28.90;99.90;;;;;;4995940;28;20174;-70
2021/12/17 04:11:19;;;;;;;12.73;3.10;;;28.20;99.90;;;;;;4995790;28;20171;-71
2021/12/17 04:13:56;;;;;;;14.17;3.77;;;27.60;99.90;;;;;;4995749;28;20269;-70
2021/12/17 04:16:28;;;;;;;15.03;3.47;;;27.50;99.90;;;;;;4995782;28;20177;-71
2021/12/17 04:18:57;;;;;;;6.57;2.67;;;28.20;99.90;;;;;;4996811;28;20671;-72
2021/12/17 04:21:25;;;;;;;8.97;3.37;;;28.80;99.90;;;;;;5013235;28;20174;-70
2021/12/17 04:23:54;;;;;;;8.07;2.87;;;28.70;99.90;;;;;;5014763;28;20514;-70
2021/12/17 04:26:24;;;;;;;13.93;3.70;;;29.20;99.90;;;;;;4995464;28;20269;-69
2021/12/17 04:28:53;;;;;;;9.87;3.53;;;28.50;99.90;;;;;;4995899;28;20174;-69
2021/12/17 04:31:28;;;;;;;9.83;3.77;;;28.70;99.90;;;;;;5012893;28;20190;-70
2021/12/17 04:33:56;;;;;;;6.43;2.60;;;28.80;99.90;;;;;;5006816;28;20182;-71
2021/12/17 04:36:31;;;;;;;7.20;2.70;;;29.10;99.90;;;;;;4995701;28;20183;-70
2021/12/17 04:39:00;;;;;;;11.53;2.70;;;29.50;99.90;;;;;;4995799;28;20221;-70
2021/12/17 04:41:50;;;;;;;9.90;3.00;;;29.40;99.90;;;;;;5006936;28;20174;-71
2021/12/17 04:44:30;;;;;;;7.87;3.00;;;28.80;99.90;;;;;;4995188;28;20667;-69
2021/12/17 04:58:02;;;;;;;11.07;3.17;;;28.80;99.90;;;;;;5014353;28;20279;-71
2021/12/17 05:00:31;;;;;;;8.50;3.37;;;29.30;99.90;;;;;;5014166;28;20626;-70
2021/12/17 05:03:00;;;;;;;11.10;3.67;;;29.80;99.90;;;;;;4996824;28;20181;-71
2021/12/17 05:05:31;;;;;;;8.17;2.90;;;30.00;99.90;;;;;;5014369;28;20564;-71
2021/12/17 05:08:04;;;;;;;8.83;3.30;;;30.00;99.90;;;;;;5012755;28;20572;-71
2021/12/17 05:18:50;;;;;;;8.80;2.87;;;30.10;99.90;;;;;;5014225;28;20301;-71
2021/12/17 05:21:22;;;;;;;8.57;2.57;;;29.70;99.90;;;;;;5014390;28;20174;-71
2021/12/17 05:23:51;;;;;;;10.20;2.77;;;28.80;99.90;;;;;;5014118;28;20178;-71
2021/12/17 05:26:20;;;;;;;9.67;3.07;;;28.40;99.90;;;;;;5014110;28;20166;-70
2021/12/17 05:28:50;;;;;;;9.57;2.77;;;28.60;99.90;;;;;;5013788;28;20178;-72
2021/12/17 05:31:21;;;;;;;12.47;3.20;;;29.20;99.90;;;;;;5014058;28;20277;-70
2021/12/17 05:33:51;;;;;;;9.17;2.93;;;29.80;99.90;;;;;;5013612;28;20186;-71
2021/12/17 05:36:21;;;;;;;8.80;3.00;;;29.60;99.90;;;;;;5012434;28;20588;-71
2021/12/17 05:38:48;;;;;;;10.43;3.13;;;29.50;99.90;;;;;;5013652;28;20214;-71
2021/12/17 05:41:16;;;;;;;6.30;2.50;;;28.30;99.90;;;;;;5013729;28;20632;-71
2021/12/17 05:43:53;;;;;;;10.53;2.80;;;28.30;99.90;;;;;;5013415;28;20182;-71
2021/12/17 05:46:36;;;;;;;11.63;2.57;;;28.90;99.90;;;;;;5013781;28;20181;-70
2021/12/17 05:49:05;;;;;;;9.47;2.60;;;28.60;99.90;;;;;;5012541;28;20192;-71
2021/12/17 05:51:32;;;;;;;7.20;2.50;;;28.10;99.90;;;;;;5013681;28;20181;-71
2021/12/17 05:54:00;;;;;;;9.73;2.47;;;27.90;99.90;;;;;;5013311;28;20178;-70
2021/12/17 05:56:28;;;;;;;11.70;2.70;;;27.60;99.90;;;;;;5013482;28;20312;-71
2021/12/17 05:58:56;;;;;;;9.37;2.67;;;27.50;99.90;;;;;;5013234;28;20222;-70
2021/12/17 06:01:24;;;;;;;8.40;2.70;;;27.30;99.90;;;;;;5013527;28;20674;-71
2021/12/17 06:03:52;;;;;;;9.83;2.83;;;27.30;99.90;;;;;;4995513;28;20279;-70
2021/12/17 06:06:32;;;;;;;6.90;2.83;;;27.20;99.90;;;;;;5013387;28;20177;-70
2021/12/17 06:09:08;;;;;;;11.00;3.57;;;27.20;99.90;;;;;;5006950;28;20174;-70
2021/12/17 06:11:37;;;;;;;9.30;2.60;;;27.30;99.90;;;;;;5004586;28;20355;-70
2021/12/17 06:14:06;;;;;;;7.53;2.73;;;27.70;99.90;;;;;;5011171;28;20703;-70
2021/12/17 06:16:34;;;;;;;6.27;2.83;;;27.70;99.90;;;;;;5013102;28;20177;-70
2021/12/17 06:19:02;;;;;;;11.23;2.77;;;28.30;99.90;;;;;;5007695;28;20221;-70
2021/12/17 06:21:30;;;;;;;7.33;2.47;;;28.00;99.90;;;;;;4993656;28;20171;-69
2021/12/17 06:23:58;;;;;;;6.40;2.60;;;27.20;99.90;;;;;;5000042;28;20667;-69
2021/12/17 06:26:26;;;;;;;5.93;2.70;;;26.90;99.90;;;;;;5013274;28;20170;-69
2021/12/17 06:28:53;;;;;;;8.00;2.50;;;26.80;99.90;;;;;;5012651;28;20178;-69
2021/12/17 06:31:23;;;;;;;8.23;2.30;;;26.80;99.90;;;;;;5013196;28;20736;-69
2021/12/17 06:33:51;;;;;;;7.73;2.60;;;27.10;99.90;;;;;;5006946;28;20261;-70
2021/12/17 06:36:19;;;;;;;7.30;2.50;;;27.20;99.90;;;;;;4993307;28;20190;-69
2021/12/17 06:38:47;;;;;;;11.57;2.53;;;27.00;99.90;;;;;;4975896;28;20222;-69
2021/12/17 06:41:14;;;;;;;6.93;2.70;;;27.10;99.90;;;;;;5012183;28;20184;-70
2021/12/17 06:43:44;;;;;;;8.77;2.83;;;27.10;99.90;;;;;;5008369;28;20183;-70
2021/12/17 06:48:42;;;;;;;14.27;2.80;;;27.30;99.90;;;;;;4993364;28;20183;-68
2021/12/17 07:10:36;;;;;;;11.70;3.40;;;26.40;99.90;;;;;;4932937;29;20231;-70
2021/12/17 07:32:41;;;;;;;10.27;2.93;;;26.00;99.90;;;;;;4997007;28;20189;-70
2021/12/17 07:40:11;;;;;;;9.10;3.20;;;26.20;99.90;;;;;;4996414;28;20565;-71
2021/12/17 07:42:39;;;;;;;10.23;2.50;;;26.20;99.90;;;;;;4996383;28;20224;-71
2021/12/17 07:45:07;;;;;;;9.70;2.70;;;26.10;99.90;;;;;;4996327;28;20190;-70
2021/12/17 07:47:35;;;;;;;6.57;2.67;;;25.90;99.90;;;;;;4996475;28;20186;-71
2021/12/17 07:50:03;;;;;;;7.03;2.27;;;26.20;99.90;;;;;;4996699;28;20189;-71
2021/12/17 07:52:31;;;;;;;10.17;2.73;;;26.00;99.90;;;;;;5012787;28;20209;-71
2021/12/17 07:54:58;;;;;;;6.17;2.37;;;26.10;99.90;;;;;;5015689;28;20232;-71
2021/12/17 07:57:26;;;;;;;5.80;2.77;;;26.00;99.90;;;;;;5015570;28;20219;-71
2021/12/17 07:59:54;;;;;;;9.63;2.33;;;25.80;99.90;;;;;;5015609;28;20209;-70
2021/12/17 08:02:21;;;;;;;8.37;2.03;;;25.50;99.90;;;;;;5015621;28;20191;-70
2021/12/17 08:04:49;;;;;;;10.73;2.83;;;25.30;99.90;;;;;;5015609;28;20195;-70
2021/12/17 08:07:17;;;;;;;7.73;2.30;;;25.50;99.90;;;;;;4997823;28;20527;-70
2021/12/17 08:09:45;;;;;;;9.33;2.13;;;25.40;99.90;;;;;;5030314;28;20188;-70
2021/12/17 08:12:13;;;;;;;4.43;1.90;;;25.40;99.90;;;;;;5015516;28;20691;-71
2021/12/17 08:14:40;;;;;;;6.60;2.33;;;25.30;99.90;;;;;;5015363;28;20174;-71
2021/12/17 08:18:08;;;;;;;8.60;2.63;;;25.10;99.90;;;;;;5030232;28;20193;-71
2021/12/17 08:25:47;;;;;;;5.40;2.30;;;24.80;99.90;;;;;;4995653;28;20239;-70
2021/12/17 08:28:16;;;;;;;10.43;2.80;;;24.60;99.90;;;;;;4994335;28;20564;-70
2021/12/17 08:30:44;;;;;;;10.73;2.40;;;24.40;99.90;;;;;;4995344;28;20296;-71
2021/12/17 08:33:18;;;;;;;13.97;3.20;;;24.10;99.90;;;;;;4996049;28;20209;-69
2021/12/17 08:35:47;;;;;;;5.83;2.30;;;24.00;99.90;;;;;;5014162;28;20367;-69
2021/12/17 08:38:15;;;;;;;9.20;2.30;;;23.80;99.90;;;;;;5009721;28;20228;-69
2021/12/17 08:40:44;;;;;;;12.73;2.53;;;23.70;99.90;;;;;;4996731;28;20185;-68
2021/12/17 08:43:12;;;;;;;7.37;2.37;;;23.50;99.90;;;;;;5001435;28;20240;-68
2021/12/17 08:45:40;;;;;;;14.30;3.10;;;23.50;99.90;;;;;;5015271;28;20660;-67
2021/12/17 08:48:07;;;;;;;10.33;2.63;;;23.40;99.90;;;;;;5018792;28;20547;-69
2021/12/17 08:50:37;;;;;;;7.03;2.27;;;23.30;99.90;;;;;;5014397;28;20623;-69
2021/12/17 08:53:04;;;;;;;8.73;2.70;;;23.20;99.90;;;;;;5018535;28;20162;-69
2021/12/17 08:55:32;;;;;;;11.93;2.33;;;23.20;99.90;;;;;;4996833;28;20550;-69
2021/12/17 08:58:00;;;;;;;8.13;2.33;;;23.20;99.90;;;;;;4994781;28;20214;-69
2021/12/17 09:00:28;;;;;;;7.90;2.30;;;23.10;99.90;;;;;;4994870;28;20278;-69
2021/12/17 09:02:59;;;;;;;10.20;3.17;;;23.10;99.90;;;;;;4977277;28;20186;-69
2021/12/17 09:05:27;;;;;;;6.30;2.40;;;23.00;99.90;;;;;;4996879;28;20204;-69
2021/12/17 09:07:55;;;;;;;9.43;2.77;;;23.00;99.90;;;;;;4994762;28;20174;-70
2021/12/17 09:10:23;;;;;;;8.53;2.20;;;22.90;99.90;;;;;;4987225;28;20190;-71
2021/12/17 09:12:51;;;;;;;7.77;2.50;;;22.80;99.90;;;;;;5014320;28;20255;-71
2021/12/17 09:15:19;;;;;;;16.63;2.67;;;22.80;99.90;;;;;;5013381;28;20191;-71
2021/12/17 09:17:47;;;;;;;24.50;3.37;;;22.80;99.90;;;;;;5014004;28;20217;-71
2021/12/17 09:20:14;;;;;;;14.20;2.70;;;22.70;99.90;;;;;;5014204;28;20639;-71
2021/12/17 09:22:42;;;;;;;15.87;2.53;;;22.60;99.90;;;;;;5014012;28;20233;-68
2021/12/17 09:25:10;;;;;;;10.20;2.70;;;22.60;99.90;;;;;;4996648;28;20186;-69
2021/12/17 09:27:38;;;;;;;10.47;2.77;;;22.50;99.90;;;;;;4983289;28;20213;-69
2021/12/17 09:30:08;;;;;;;9.93;2.60;;;22.50;99.90;;;;;;5013490;28;20234;-70
2021/12/17 09:32:38;;;;;;;7.23;2.50;;;22.50;99.90;;;;;;5009173;28;20182;-70
2021/12/17 09:35:07;;;;;;;9.57;2.60;;;22.40;99.90;;;;;;5001701;28;20221;-70
2021/12/17 09:37:35;;;;;;;7.23;2.50;;;22.40;99.90;;;;;;4994344;28;20217;-70
2021/12/17 09:40:06;;;;;;;8.67;3.07;;;22.40;99.90;;;;;;5006907;28;20561;-70
2021/12/17 09:42:38;;;;;;;13.50;2.93;;;22.40;99.90;;;;;;4996209;28;20209;-69
2021/12/17 09:45:07;;;;;;;9.73;3.23;;;22.30;99.90;;;;;;4999994;28;20214;-69
2021/12/17 09:47:35;;;;;;;9.50;2.60;;;22.30;99.90;;;;;;4993304;28;20548;-70
2021/12/17 09:50:03;;;;;;;12.07;2.40;;;22.20;99.90;;;;;;4994091;28;20181;-69
2021/12/17 09:52:31;;;;;;;12.03;2.70;;;22.20;99.90;;;;;;4994131;28;20194;-70
2021/12/17 09:55:00;;;;;;;11.93;3.37;;;22.20;99.90;;;;;;4994799;28;20214;-70
2021/12/17 09:57:30;;;;;;;8.90;3.03;;;22.20;99.90;;;;;;4994028;28;20228;-70
2021/12/17 09:59:58;;;;;;;9.33;2.53;;;22.10;99.90;;;;;;4999266;28;20189;-70
2021/12/17 10:02:25;;;;;;;10.13;2.40;;;22.10;99.90;;;;;;5012540;28;20181;-71
2021/12/17 10:04:56;;;;;;;9.03;2.40;;;22.10;99.90;;;;;;4997722;28;20194;-68
2021/12/17 10:07:26;;;;;;;10.67;2.97;;;22.10;99.90;;;;;;5003251;28;20179;-68
2021/12/17 10:09:59;;;;;;;14.20;3.10;;;22.00;99.90;;;;;;5002205;28;20190;-69
2021/12/17 10:12:35;;;;;;;13.77;2.50;;;22.00;99.90;;;;;;5013433;28;20182;-69
2021/12/17 10:15:05;;;;;;;14.40;3.20;;;21.90;99.90;;;;;;4996424;28;20287;-69
2021/12/17 10:17:34;;;;;;;8.60;2.87;;;21.90;99.90;;;;;;4994589;28;20269;-69
2021/12/17 10:20:07;;;;;;;13.03;3.27;;;21.90;99.90;;;;;;4993460;28;20277;-69
2021/12/17 10:22:34;;;;;;;11.40;3.47;;;21.90;99.90;;;;;;4993984;28;20182;-69
2021/12/17 10:25:08;;;;;;;10.10;3.20;;;21.90;99.90;;;;;;5011651;28;20678;-69
2021/12/17 10:27:39;;;;;;;7.80;2.83;;;21.90;99.90;;;;;;5013368;28;20548;-68
2021/12/17 10:30:29;;;;;;;9.47;2.87;;;21.80;99.90;;;;;;5012956;28;20594;-68
2021/12/17 10:32:59;;;;;;;9.20;2.80;;;21.80;99.90;;;;;;4995445;28;20271;-69
2021/12/17 10:35:32;;;;;;;10.47;3.20;;;21.80;99.90;;;;;;4986747;28;20197;-68
2021/12/17 10:38:04;;;;;;;12.07;2.60;;;21.80;99.90;;;;;;4995701;28;20199;-68
2021/12/17 10:40:34;;;;;;;11.77;2.60;;;21.80;99.90;;;;;;4993511;28;20185;-70
2021/12/17 10:43:17;;;;;;;11.00;3.00;;;21.70;99.90;;;;;;4993451;28;20200;-69
2021/12/17 10:45:59;;;;;;;16.53;3.23;;;21.70;99.90;;;;;;4993472;28;20178;-69
2021/12/17 10:48:33;;;;;;;11.17;3.30;;;21.70;99.90;;;;;;4993343;28;20182;-69
2021/12/17 10:51:15;;;;;;;8.77;3.27;;;21.60;99.90;;;;;;5001240;28;20272;-69
2021/12/17 10:53:55;;;;;;;11.00;3.07;;;21.60;99.90;;;;;;4994552;28;20186;-69
2021/12/17 10:56:24;;;;;;;11.40;3.43;;;21.60;99.90;;;;;;5013034;28;20174;-68
2021/12/17 10:59:10;;;;;;;9.30;2.60;;;21.60;99.90;;;;;;5013766;28;20216;-69
2021/12/17 11:01:44;;;;;;;12.83;3.50;;;21.50;99.90;;;;;;5016703;28;20180;-69
2021/12/17 11:04:25;;;;;;;6.77;2.60;;;21.50;99.90;;;;;;5004297;28;20182;-69
2021/12/17 11:07:03;;;;;;;11.97;2.30;;;21.50;99.90;;;;;;4997293;28;20171;-69
2021/12/17 11:10:00;;;;;;;8.87;2.57;;;21.50;99.90;;;;;;4979508;28;20266;-69
2021/12/17 11:12:41;;;;;;;13.20;2.97;;;21.50;99.90;;;;;;4998157;28;20215;-69
2021/12/17 11:15:28;;;;;;;11.00;3.53;;;21.50;99.90;;;;;;4997155;28;20269;-70
2021/12/17 11:18:02;;;;;;;13.77;3.13;;;21.50;99.90;;;;;;4996914;28;20302;-70
2021/12/17 11:20:33;;;;;;;11.50;2.70;;;21.40;99.90;;;;;;4996938;28;20637;-69
2021/12/17 11:23:06;;;;;;;15.33;3.40;;;21.40;99.90;;;;;;5005077;28;20248;-70
2021/12/17 11:25:35;;;;;;;10.07;3.00;;;21.40;99.90;;;;;;4996930;28;20215;-69
2021/12/17 11:28:04;;;;;;;14.10;3.67;;;21.40;99.90;;;;;;4996819;28;20176;-69
2021/12/17 11:30:35;;;;;;;9.60;2.50;;;21.40;99.90;;;;;;5012472;28;20226;-70
2021/12/17 11:33:04;;;;;;;7.77;2.57;;;21.30;99.90;;;;;;5013527;28;20278;-70
2021/12/17 11:35:38;;;;;;;10.60;3.10;;;21.30;99.90;;;;;;4997913;28;20564;-68
2021/12/17 11:38:29;;;;;;;8.00;2.50;;;21.20;99.90;;;;;;4996558;28;20304;-69
2021/12/17 11:41:20;;;;;;;10.53;3.30;;;21.30;99.90;;;;;;4996844;28;20253;-69
2021/12/17 11:44:05;;;;;;;12.93;2.87;;;21.30;99.90;;;;;;5005395;28;20197;-69
2021/12/17 11:46:34;;;;;;;9.83;3.67;;;21.20;99.90;;;;;;5015434;28;20196;-69
2021/12/17 11:49:10;;;;;;;9.63;3.07;;;21.20;99.90;;;;;;4996431;28;20262;-69
2021/12/17 11:51:37;;;;;;;8.47;2.50;;;21.20;99.90;;;;;;4996423;28;20691;-69
2021/12/17 11:54:11;;;;;;;11.47;2.70;;;21.20;99.90;;;;;;5006502;28;20338;-69
2021/12/17 11:56:48;;;;;;;13.50;2.90;;;21.20;99.90;;;;;;5015618;28;20256;-69
2021/12/17 11:59:28;;;;;;;9.83;3.30;;;21.20;99.90;;;;;;4998138;28;20221;-68
2021/12/17 12:02:01;;;;;;;6.77;2.73;;;21.10;99.90;;;;;;5015893;28;20398;-69
2021/12/17 12:04:34;;;;;;;16.07;3.13;;;21.00;99.90;;;;;;5014052;28;20245;-69
2021/12/17 12:07:12;;;;;;;12.67;2.70;;;21.00;99.90;;;;;;5015871;28;20272;-69
2021/12/17 12:10:03;;;;;;;9.23;2.73;;;21.00;99.90;;;;;;5015707;28;20536;-69
2021/12/17 12:12:44;;;;;;;10.80;2.73;;;21.00;99.90;;;;;;5013463;28;20215;-69
2021/12/17 12:15:23;;;;;;;14.83;2.93;;;20.90;99.90;;;;;;5015579;28;20182;-69
2021/12/17 12:18:08;;;;;;;13.03;3.13;;;20.90;99.90;;;;;;5015283;28;20212;-69
2021/12/17 12:20:40;;;;;;;9.77;3.70;;;20.80;99.90;;;;;;4998465;28;20723;-69
2021/12/17 12:23:25;;;;;;;13.10;2.80;;;20.80;99.90;;;;;;5001661;28;20258;-69
2021/12/17 12:26:05;;;;;;;18.30;3.70;;;20.90;99.90;;;;;;4995743;28;20183;-69
2021/12/17 12:28:48;;;;;;;13.60;3.40;;;20.90;99.90;;;;;;4995749;28;20643;-69
2021/12/17 12:31:18;;;;;;;12.93;3.60;;;20.90;99.90;;;;;;5010641;28;20258;-69
2021/12/17 12:34:08;;;;;;;14.40;3.23;;;20.80;99.90;;;;;;4995804;28;20187;-69
2021/12/17 12:37:11;;;;;;;8.10;2.90;;;20.70;99.90;;;;;;4978174;28;20186;-69
2021/12/17 12:39:50;;;;;;;12.73;3.37;;;20.70;99.90;;;;;;4999964;28;20214;-70
2021/12/17 12:42:23;;;;;;;14.27;3.37;;;20.70;99.90;;;;;;4995393;28;20178;-69
2021/12/17 12:44:51;;;;;;;12.40;3.43;;;20.80;99.90;;;;;;4995389;28;20609;-69
2021/12/17 12:47:27;;;;;;;9.93;3.10;;;20.70;99.90;;;;;;4995419;28;20261;-69
2021/12/17 12:50:02;;;;;;;10.03;2.70;;;20.70;99.90;;;;;;4983200;28;20185;-68
2021/12/17 12:52:32;;;;;;;14.60;3.30;;;20.70;99.90;;;;;;5014905;28;20173;-69
2021/12/17 12:55:04;;;;;;;15.03;3.10;;;20.60;99.90;;;;;;4986631;28;20185;-68
2021/12/17 12:57:43;;;;;;;16.10;2.80;;;20.60;99.90;;;;;;5001366;28;20178;-71
2021/12/17 13:00:12;;;;;;;13.20;3.07;;;20.60;99.90;;;;;;5004827;28;20274;-71
2021/12/17 13:02:40;;;;;;;13.97;2.93;;;20.60;99.90;;;;;;4994962;28;20179;-71
2021/12/17 13:05:09;;;;;;;7.77;2.93;;;20.50;99.90;;;;;;5003652;28;20193;-70
2021/12/17 13:07:39;;;;;;;14.23;2.50;;;20.50;99.90;;;;;;4997047;28;20670;-71
2021/12/17 13:10:09;;;;;;;19.43;3.60;;;20.50;99.90;;;;;;5007185;28;20237;-71
2021/12/17 13:12:37;;;;;;;19.17;3.07;;;20.50;99.90;;;;;;5004783;28;20185;-71
2021/12/17 13:15:17;;;;;;;14.43;3.57;;;20.40;99.90;;;;;;5014253;28;20188;-70
2021/12/17 13:21:04;;;;;;;13.10;2.97;;;20.40;99.90;;;;;;5007068;28;20189;-71
2021/12/17 13:23:46;;;;;;;12.53;2.90;;;20.40;99.90;;;;;;4996345;28;20656;-70
2021/12/17 13:26:14;;;;;;;12.43;2.77;;;20.30;99.90;;;;;;5014518;28;20633;-70
2021/12/17 13:29:06;;;;;;;11.90;3.70;;;20.30;99.90;;;;;;5014290;28;20178;-70
2021/12/17 13:31:45;;;;;;;8.97;2.70;;;20.30;99.90;;;;;;4978059;28;20250;-70
2021/12/17 13:34:25;;;;;;;12.30;2.97;;;20.30;99.90;;;;;;4994861;28;20245;-71
2021/12/17 13:36:54;;;;;;;8.43;2.73;;;20.30;99.90;;;;;;4977249;28;20200;-70
2021/12/17 13:39:23;;;;;;;9.87;2.97;;;20.20;99.90;;;;;;4996484;28;20297;-71
2021/12/17 13:41:52;;;;;;;6.73;2.60;;;20.10;99.90;;;;;;5014395;28;20197;-70
2021/12/17 13:44:42;;;;;;;13.90;2.97;;;20.10;99.90;;;;;;5014197;28;20705;-70
2021/12/17 13:47:35;;;;;;;8.73;2.70;;;20.10;99.90;;;;;;4997129;28;20269;-70
2021/12/17 13:50:23;;;;;;;10.33;3.20;;;20.10;99.90;;;;;;5001743;28;20195;-71
2021/12/17 13:52:55;;;;;;;11.63;3.13;;;20.00;99.90;;;;;;5014045;28;20167;-70
2021/12/17 13:55:27;;;;;;;10.03;3.20;;;20.00;99.90;;;;;;5014226;28;20193;-71
2021/12/17 13:57:56;;;;;;;14.83;3.37;;;20.00;99.90;;;;;;4996969;28;20222;-71
2021/12/17 14:00:36;;;;;;;9.57;2.90;;;20.00;99.90;;;;;;4998662;28;20184;-70
2021/12/17 14:03:05;;;;;;;11.80;3.53;;;19.90;99.90;;;;;;4994077;28;20176;-70
2021/12/17 14:08:40;;;;;;;15.07;3.50;;;19.80;99.90;;;;;;4991039;28;20182;-71
2021/12/17 14:11:27;;;;;;;13.37;3.00;;;19.70;99.90;;;;;;4996368;28;20186;-71
2021/12/17 14:13:54;;;;;;;10.47;3.10;;;19.70;99.90;;;;;;4994103;28;20182;-71
2021/12/17 14:16:34;;;;;;;7.67;2.87;;;19.60;99.90;;;;;;4993913;28;20177;-71
2021/12/17 14:19:02;;;;;;;12.67;3.20;;;19.60;99.90;;;;;;4993648;28;20215;-71
2021/12/17 14:21:31;;;;;;;12.67;3.13;;;19.50;99.90;;;;;;4994951;28;20189;-71
2021/12/17 14:23:59;;;;;;;14.27;3.30;;;19.50;99.90;;;;;;4993914;28;20260;-71
2021/12/17 14:26:31;;;;;;;13.37;3.13;;;19.50;99.90;;;;;;4993963;28;20664;-71
2021/12/17 14:29:18;;;;;;;12.50;3.23;;;19.50;99.90;;;;;;4993839;28;20199;-71
2021/12/17 14:31:46;;;;;;;10.47;3.27;;;19.40;99.90;;;;;;5013448;28;20572;-71
2021/12/17 14:34:17;;;;;;;8.70;2.93;;;19.40;99.90;;;;;;5012738;28;20170;-71
2021/12/17 14:36:46;;;;;;;5.87;3.13;;;19.30;99.90;;;;;;5002097;28;20253;-72
2021/12/17 14:39:19;;;;;;;9.43;2.90;;;19.20;99.90;;;;;;4993761;28;20250;-70
2021/12/17 14:41:54;;;;;;;12.40;3.37;;;19.20;99.90;;;;;;5013080;28;20276;-70
2021/12/17 14:47:27;;;;;;;9.93;3.13;;;19.20;99.90;;;;;;5013345;28;20202;-71
2021/12/17 15:03:43;;;;;;;12.93;3.83;;;18.90;99.90;;;;;;4993691;28;20218;-72
2021/12/17 15:06:15;;;;;;;10.70;3.70;;;18.90;99.90;;;;;;4976067;28;20542;-71
2021/12/17 15:08:43;;;;;;;15.53;4.30;;;18.90;99.90;;;;;;4993713;28;20198;-71
2021/12/17 15:11:37;;;;;;;11.93;3.83;;;18.80;99.90;;;;;;5013182;28;20602;-71
2021/12/17 15:14:03;;;;;;;7.07;3.27;;;18.90;99.90;;;;;;4993244;28;20197;-70
2021/12/17 15:16:30;;;;;;;12.13;3.67;;;18.90;99.90;;;;;;4993587;28;20621;-72
2021/12/17 15:18:58;;;;;;;9.17;3.83;;;18.80;99.90;;;;;;4995201;28;20216;-72
2021/12/17 15:21:25;;;;;;;13.03;3.93;;;18.80;99.90;;;;;;5013202;28;20174;-71
2021/12/17 15:23:52;;;;;;;15.83;4.10;;;18.80;99.90;;;;;;5013219;28;20178;-71
2021/12/17 15:26:20;;;;;;;15.67;4.07;;;18.80;99.90;;;;;;5013157;28;20189;-71
2021/12/17 15:28:47;;;;;;;13.40;3.97;;;18.80;99.90;;;;;;5012190;28;20576;-70
2021/12/17 15:31:14;;;;;;;8.93;3.37;;;18.80;99.90;;;;;;5012382;28;20248;-70
2021/12/17 15:33:41;;;;;;;13.43;3.53;;;18.80;99.90;;;;;;5012931;28;20174;-70
2021/12/17 15:36:09;;;;;;;8.93;3.53;;;18.80;99.90;;;;;;5012666;28;20624;-71
2021/12/17 15:38:36;;;;;;;9.33;3.07;;;18.80;99.90;;;;;;5011062;28;20214;-71
2021/12/17 15:41:04;;;;;;;14.60;3.53;;;18.80;99.90;;;;;;5012858;28;20182;-70
2021/12/17 15:43:31;;;;;;;9.93;3.27;;;18.80;99.90;;;;;;5011899;28;20206;-70
2021/12/17 15:45:58;;;;;;;10.77;3.47;;;18.80;99.90;;;;;;4976815;28;20636;-72
2021/12/17 15:48:26;;;;;;;11.77;3.60;;;18.80;99.90;;;;;;4997471;28;20699;-70
2021/12/17 15:50:54;;;;;;;11.57;3.73;;;18.80;99.90;;;;;;5016307;28;20182;-71
2021/12/17 15:53:21;;;;;;;9.50;3.23;;;18.80;99.90;;;;;;5002685;28;20185;-71
2021/12/17 15:55:49;;;;;;;15.50;3.77;;;18.80;99.90;;;;;;4996441;28;20185;-70
2021/12/17 15:58:16;;;;;;;10.50;3.30;;;18.80;99.90;;;;;;4978847;28;20692;-71
2021/12/17 16:00:43;;;;;;;13.47;3.50;;;18.80;99.90;;;;;;5015908;28;20236;-71
2021/12/17 16:03:14;;;;;;;8.67;3.20;;;18.80;99.90;;;;;;5016054;28;20265;-71